createdAt,value
2023-04-26T05:46:11.934Z,99821.62
2023-04-26T05:48:57.663Z,99821.62
2023-04-26T05:51:43.407Z,99830.38
2023-04-26T05:54:28.570Z,99828.31
2023-04-26T05:57:14.079Z,99839.00
2023-04-26T05:59:59.591Z,99837.88
2023-04-26T06:02:48.577Z,99840.69
2023-04-26T06:05:34.611Z,99851.84
2023-04-26T06:08:19.659Z,99849.16
2023-04-26T06:11:12.733Z,99848.59
2023-04-26T06:13:57.993Z,99843.47
2023-04-26T06:16:43.929Z,99861.97
2023-04-26T06:19:29.226Z,99853.38
2023-04-26T06:22:16.697Z,99861.16
2023-04-26T06:25:02.519Z,99872.28
2023-04-26T06:27:49.062Z,99861.28
2023-04-26T06:30:36.751Z,99868.41
2023-04-26T06:33:23.204Z,99871.28
2023-04-26T06:36:20.080Z,99866.72
2023-04-26T06:39:06.393Z,99872.53
2023-04-26T06:41:52.623Z,99876.31
2023-04-26T06:44:40.084Z,99850.50
2023-04-26T06:47:25.696Z,99868.16
2023-04-26T06:50:11.889Z,99867.91
2023-04-26T06:52:57.626Z,99856.53
2023-04-26T06:55:43.190Z,99874.44
2023-04-26T06:58:28.600Z,99874.03
2023-04-26T07:01:15.010Z,99859.69
2023-04-26T07:04:10.964Z,99877.63
2023-04-26T07:06:58.161Z,99877.47
2023-04-26T07:09:44.122Z,99869.69
2023-04-26T07:12:29.536Z,99882.16
2023-04-26T07:15:15.154Z,99882.84
2023-04-26T07:18:00.849Z,99889.19
2023-04-26T07:20:46.226Z,99899.72
2023-04-26T07:23:32.879Z,99894.81
2023-04-26T07:26:18.266Z,99907.22
2023-04-26T07:29:06.216Z,99902.47
2023-04-26T07:31:57.374Z,99900.13
2023-04-26T07:34:50.971Z,99915.00
2023-04-26T07:37:36.653Z,99919.13
2023-04-26T07:40:26.439Z,99913.66
2023-04-26T07:43:15.677Z,99917.66
2023-04-26T07:46:02.334Z,99910.13
2023-04-26T07:48:50.116Z,99929.62
2023-04-26T07:51:38.145Z,99914.25
2023-04-26T07:54:28.933Z,99909.44
2023-04-26T07:57:19.073Z,99921.88
2023-04-26T08:00:10.368Z,99917.63
2023-04-26T08:02:56.055Z,99927.34
2023-04-26T08:05:56.301Z,99927.94
2023-04-26T08:08:45.298Z,99927.78
2023-04-26T08:11:30.658Z,99926.59
2023-04-26T08:14:22.998Z,99930.13
2023-04-26T08:17:12.243Z,99917.47
2023-04-26T08:19:59.612Z,99929.19
2023-04-26T08:22:45.134Z,99929.91
2023-04-26T08:25:31.787Z,99930.72
2023-04-26T08:28:18.643Z,99936.16
2023-04-26T08:31:04.537Z,99923.91
2023-04-26T08:33:51.161Z,99934.91
2023-04-26T08:36:41.693Z,99947.94
2023-04-26T08:39:27.165Z,99950.19
2023-04-26T08:42:20.086Z,99963.69
2023-04-26T08:45:06.507Z,99961.50
2023-04-26T08:48:10.556Z,99974.75
2023-04-26T08:50:56.863Z,99955.31
2023-04-26T08:53:43.087Z,99959.78
2023-04-26T08:56:36.288Z,99947.63
2023-04-26T08:59:21.921Z,99959.62
2023-04-26T09:02:08.099Z,99957.34
2023-04-26T09:04:53.344Z,99966.69
2023-04-26T09:07:47.083Z,99966.19
2023-04-26T09:10:33.886Z,99976.91
2023-04-26T09:13:19.214Z,99966.25
2023-04-26T09:16:05.099Z,99971.25
2023-04-26T09:18:57.351Z,99972.34
2023-04-26T09:21:45.251Z,99965.38
2023-04-26T09:24:57.541Z,99961.72
2023-04-26T09:27:44.247Z,99955.81
2023-04-26T09:30:39.457Z,99962.94
2023-04-26T09:33:25.217Z,99966.16
2023-04-26T09:36:13.741Z,99953.53
2023-04-26T09:39:01.257Z,99971.16
2023-04-26T09:41:47.595Z,99933.13
2023-04-26T09:44:33.382Z,99954.72
2023-04-26T09:47:18.452Z,99945.47
2023-04-26T09:50:04.298Z,99942.28
2023-04-26T09:52:50.319Z,99962.87
2023-04-26T09:55:36.908Z,99910.81
2023-04-26T09:58:23.489Z,99957.97
2023-04-26T10:01:09.551Z,99950.91
2023-04-26T10:03:57.819Z,99970.63
2023-04-26T10:06:43.499Z,99955.37
2023-04-26T10:09:29.168Z,99961.22
2023-04-26T10:12:16.803Z,99921.81
2023-04-26T10:15:03.845Z,99949.47
2023-04-26T10:17:50.773Z,99965.06
2023-04-26T10:20:42.317Z,99916.03
2023-04-26T10:23:28.004Z,99938.38
2023-04-26T10:26:55.044Z,99924.69
2023-04-26T10:29:56.497Z,99961.28
2023-04-26T10:33:02.234Z,99922.53
2023-04-26T10:36:26.222Z,99914.50
2023-04-26T10:39:25.151Z,99916.59
2023-04-26T10:42:24.171Z,99937.88
2023-04-26T10:45:27.429Z,99929.03
2023-04-26T10:48:19.953Z,99930.34
2023-04-26T10:51:12.804Z,99927.22
2023-04-26T10:53:58.267Z,99926.47
2023-04-26T10:56:47.102Z,99914.22
2023-04-26T10:59:43.401Z,99903.13
2023-04-26T11:03:08.137Z,99920.72
2023-04-26T11:05:55.488Z,99903.47
2023-04-26T11:08:41.124Z,99910.69
2023-04-26T11:11:29.789Z,99914.06
2023-04-26T11:14:16.402Z,99915.00
2023-04-26T11:17:06.473Z,99894.78
2023-04-26T11:19:51.882Z,99915.78
2023-04-26T11:22:40.507Z,99904.75
2023-04-26T11:25:28.289Z,99888.53
2023-04-26T11:28:20.309Z,99896.13
2023-04-26T11:31:07.500Z,99900.34
2023-04-26T11:33:52.561Z,99907.13
2023-04-26T11:36:38.789Z,99923.84
2023-04-26T11:39:24.440Z,99914.22
2023-04-26T11:42:11.905Z,99921.19
2023-04-26T11:44:57.636Z,99916.13
2023-04-26T11:47:44.353Z,99923.59
2023-04-26T11:50:32.335Z,99925.91
2023-04-26T11:53:18.070Z,99911.13
2023-04-26T11:56:05.705Z,99908.91
2023-04-26T11:58:52.675Z,99906.38
2023-04-26T12:01:38.317Z,99913.53
2023-04-26T12:04:30.396Z,99913.34
2023-04-26T12:07:18.942Z,99907.56
2023-04-26T12:10:19.081Z,99903.75
2023-04-26T12:13:13.812Z,99909.13
2023-04-26T12:15:59.816Z,99893.59
2023-04-26T12:18:50.910Z,99897.84
2023-04-26T12:21:43.132Z,99906.50
2023-04-26T12:24:34.760Z,99898.28
2023-04-26T12:27:21.376Z,99896.06
2023-04-26T12:30:07.261Z,99903.50
2023-04-26T12:32:52.434Z,99901.56
2023-04-26T12:35:37.815Z,99897.75
2023-04-26T12:38:23.488Z,99902.81
